sensor_id;sensor_type;location;lat;lon;timestamp;P1;durP1;ratioP1;P2;durP2;ratioP2
20824;SDS011;10573;50.936;6.978;2024-01-16T00:00:22;14.37;;;7.03;;
20824;SDS011;10573;50.936;6.978;2024-01-16T00:02:47;12.18;;;7.40;;
20824;SDS011;10573;50.936;6.978;2024-01-16T00:05:13;11.53;;;6.80;;
20824;SDS011;10573;50.936;6.978;2024-01-16T00:07:39;13.07;;;7.30;;
20824;SDS011;10573;50.936;6.978;2024-01-16T00:10:07;11.80;;;6.90;;
20824;SDS011;10573;50.936;6.978;2024-01-16T00:12:33;13.38;;;7.00;;
20824;SDS011;10573;50.936;6.978;2024-01-16T00:14:58;11.40;;;6.70;;
20824;SDS011;10573;50.936;6.978;2024-01-16T00:17:23;12.23;;;7.00;;
20824;SDS011;10573;50.936;6.978;2024-01-16T00:19:49;13.17;;;7.20;;
20824;SDS011;10573;50.936;6.978;2024-01-16T00:22:14;11.77;;;6.97;;
20824;SDS011;10573;50.936;6.978;2024-01-16T00:24:40;15.38;;;7.25;;
20824;SDS011;10573;50.936;6.978;2024-01-16T00:27:05;14.00;;;7.33;;
20824;SDS011;10573;50.936;6.978;2024-01-16T00:29:31;17.40;;;7.33;;
20824;SDS011;10573;50.936;6.978;2024-01-16T00:31:56;17.53;;;7.57;;
20824;SDS011;10573;50.936;6.978;2024-01-16T00:34:22;16.13;;;7.33;;
20824;SDS011;10573;50.936;6.978;2024-01-16T00:36:47;13.38;;;6.95;;
20824;SDS011;10573;50.936;6.978;2024-01-16T00:39:12;17.67;;;7.20;;
20824;SDS011;10573;50.936;6.978;2024-01-16T00:41:38;13.07;;;6.82;;
20824;SDS011;10573;50.936;6.978;2024-01-16T00:44:04;15.63;;;7.22;;
20824;SDS011;10573;50.936;6.978;2024-01-16T00:46:30;16.42;;;7.25;;
20824;SDS011;10573;50.936;6.978;2024-01-16T00:48:55;19.37;;;7.27;;
20824;SDS011;10573;50.936;6.978;2024-01-16T00:51:21;14.43;;;7.50;;
20824;SDS011;10573;50.936;6.978;2024-01-16T00:53:46;11.47;;;7.03;;
20824;SDS011;10573;50.936;6.978;2024-01-16T00:56:12;14.27;;;7.10;;
20824;SDS011;10573;50.936;6.978;2024-01-16T00:58:37;16.60;;;7.60;;
20824;SDS011;10573;50.936;6.978;2024-01-16T01:01:03;14.73;;;6.83;;
20824;SDS011;10573;50.936;6.978;2024-01-16T01:03:29;14.63;;;7.67;;
20824;SDS011;10573;50.936;6.978;2024-01-16T01:05:55;14.00;;;7.20;;
20824;SDS011;10573;50.936;6.978;2024-01-16T01:08:20;16.93;;;8.57;;
20824;SDS011;10573;50.936;6.978;2024-01-16T01:10:46;17.60;;;7.80;;
20824;SDS011;10573;50.936;6.978;2024-01-16T01:13:12;14.25;;;7.95;;
20824;SDS011;10573;50.936;6.978;2024-01-16T01:15:38;15.80;;;7.40;;
20824;SDS011;10573;50.936;6.978;2024-01-16T01:18:03;15.73;;;7.32;;
20824;SDS011;10573;50.936;6.978;2024-01-16T01:20:29;15.43;;;7.30;;
20824;SDS011;10573;50.936;6.978;2024-01-16T01:22:54;12.32;;;7.65;;
20824;SDS011;10573;50.936;6.978;2024-01-16T01:25:20;12.20;;;6.70;;
20824;SDS011;10573;50.936;6.978;2024-01-16T01:27:45;16.02;;;6.90;;
20824;SDS011;10573;50.936;6.978;2024-01-16T01:30:11;13.47;;;6.77;;
20824;SDS011;10573;50.936;6.978;2024-01-16T01:32:37;12.57;;;6.90;;
20824;SDS011;10573;50.936;6.978;2024-01-16T01:35:03;12.80;;;6.47;;
20824;SDS011;10573;50.936;6.978;2024-01-16T01:37:29;15.00;;;6.45;;
20824;SDS011;10573;50.936;6.978;2024-01-16T01:39:54;12.87;;;6.30;;
20824;SDS011;10573;50.936;6.978;2024-01-16T01:42:20;12.13;;;5.70;;
20824;SDS011;10573;50.936;6.978;2024-01-16T01:44:45;12.77;;;6.40;;
20824;SDS011;10573;50.936;6.978;2024-01-16T01:47:11;12.38;;;5.75;;
20824;SDS011;10573;50.936;6.978;2024-01-16T01:49:36;8.88;;;5.25;;
20824;SDS011;10573;50.936;6.978;2024-01-16T01:52:02;12.45;;;5.55;;
20824;SDS011;10573;50.936;6.978;2024-01-16T01:54:29;12.60;;;5.33;;
20824;SDS011;10573;50.936;6.978;2024-01-16T01:56:58;15.13;;;5.43;;
20824;SDS011;10573;50.936;6.978;2024-01-16T01:59:24;12.07;;;5.72;;
20824;SDS011;10573;50.936;6.978;2024-01-16T02:01:51;14.55;;;6.00;;
20824;SDS011;10573;50.936;6.978;2024-01-16T02:04:20;15.05;;;6.40;;
20824;SDS011;10573;50.936;6.978;2024-01-16T02:06:47;13.43;;;6.20;;
20824;SDS011;10573;50.936;6.978;2024-01-16T02:09:13;11.82;;;6.43;;
20824;SDS011;10573;50.936;6.978;2024-01-16T02:11:42;14.87;;;6.77;;
20824;SDS011;10573;50.936;6.978;2024-01-16T02:14:08;16.70;;;6.90;;
20824;SDS011;10573;50.936;6.978;2024-01-16T02:16:38;16.85;;;7.43;;
20824;SDS011;10573;50.936;6.978;2024-01-16T02:19:05;14.57;;;7.28;;
20824;SDS011;10573;50.936;6.978;2024-01-16T02:21:46;12.27;;;7.47;;
20824;SDS011;10573;50.936;6.978;2024-01-16T02:24:16;18.13;;;7.82;;
20824;SDS011;10573;50.936;6.978;2024-01-16T02:26:43;17.67;;;8.45;;
20824;SDS011;10573;50.936;6.978;2024-01-16T02:29:09;18.63;;;8.20;;
20824;SDS011;10573;50.936;6.978;2024-01-16T02:31:34;15.88;;;8.80;;
20824;SDS011;10573;50.936;6.978;2024-01-16T02:34:00;17.90;;;8.57;;
20824;SDS011;10573;50.936;6.978;2024-01-16T02:36:26;16.80;;;8.63;;
20824;SDS011;10573;50.936;6.978;2024-01-16T02:38:53;15.43;;;7.50;;
20824;SDS011;10573;50.936;6.978;2024-01-16T02:41:18;14.70;;;7.20;;
20824;SDS011;10573;50.936;6.978;2024-01-16T02:43:44;17.38;;;7.47;;
20824;SDS011;10573;50.936;6.978;2024-01-16T02:46:09;17.00;;;7.30;;
20824;SDS011;10573;50.936;6.978;2024-01-16T02:48:35;15.97;;;7.07;;
20824;SDS011;10573;50.936;6.978;2024-01-16T02:51:02;13.95;;;7.18;;
20824;SDS011;10573;50.936;6.978;2024-01-16T02:53:28;16.30;;;6.97;;
20824;SDS011;10573;50.936;6.978;2024-01-16T02:55:54;13.93;;;7.70;;
20824;SDS011;10573;50.936;6.978;2024-01-16T02:58:20;19.23;;;7.87;;
20824;SDS011;10573;50.936;6.978;2024-01-16T03:00:46;20.40;;;7.32;;
20824;SDS011;10573;50.936;6.978;2024-01-16T03:03:12;13.57;;;7.18;;
20824;SDS011;10573;50.936;6.978;2024-01-16T03:05:38;19.08;;;8.15;;
20824;SDS011;10573;50.936;6.978;2024-01-16T03:08:03;14.50;;;7.27;;
20824;SDS011;10573;50.936;6.978;2024-01-16T03:10:29;14.05;;;7.10;;
20824;SDS011;10573;50.936;6.978;2024-01-16T03:12:54;16.73;;;7.38;;
20824;SDS011;10573;50.936;6.978;2024-01-16T03:15:19;14.53;;;7.20;;
20824;SDS011;10573;50.936;6.978;2024-01-16T03:17:45;13.47;;;6.60;;
20824;SDS011;10573;50.936;6.978;2024-01-16T03:20:11;17.25;;;7.25;;
20824;SDS011;10573;50.936;6.978;2024-01-16T03:22:37;17.00;;;7.15;;
20824;SDS011;10573;50.936;6.978;2024-01-16T03:25:02;18.35;;;7.68;;
20824;SDS011;10573;50.936;6.978;2024-01-16T03:27:28;17.65;;;7.53;;
20824;SDS011;10573;50.936;6.978;2024-01-16T03:29:53;13.63;;;7.07;;
20824;SDS011;10573;50.936;6.978;2024-01-16T03:32:18;18.87;;;7.80;;
20824;SDS011;10573;50.936;6.978;2024-01-16T03:34:44;13.75;;;7.15;;
20824;SDS011;10573;50.936;6.978;2024-01-16T03:37:09;14.32;;;7.80;;
20824;SDS011;10573;50.936;6.978;2024-01-16T03:39:35;16.13;;;7.60;;
20824;SDS011;10573;50.936;6.978;2024-01-16T03:42:00;18.83;;;7.40;;
20824;SDS011;10573;50.936;6.978;2024-01-16T03:44:25;15.80;;;7.50;;
20824;SDS011;10573;50.936;6.978;2024-01-16T03:46:51;14.57;;;7.50;;
20824;SDS011;10573;50.936;6.978;2024-01-16T03:49:16;16.00;;;7.70;;
20824;SDS011;10573;50.936;6.978;2024-01-16T03:51:42;14.90;;;7.60;;
20824;SDS011;10573;50.936;6.978;2024-01-16T03:54:11;17.53;;;8.17;;
20824;SDS011;10573;50.936;6.978;2024-01-16T03:56:39;16.40;;;8.30;;
20824;SDS011;10573;50.936;6.978;2024-01-16T03:59:05;15.10;;;8.32;;
20824;SDS011;10573;50.936;6.978;2024-01-16T04:01:33;17.60;;;8.55;;
20824;SDS011;10573;50.936;6.978;2024-01-16T04:04:02;19.80;;;9.02;;
20824;SDS011;10573;50.936;6.978;2024-01-16T04:06:27;15.45;;;8.60;;
20824;SDS011;10573;50.936;6.978;2024-01-16T04:08:54;15.40;;;8.83;;
20824;SDS011;10573;50.936;6.978;2024-01-16T04:11:20;16.50;;;9.60;;
20824;SDS011;10573;50.936;6.978;2024-01-16T04:13:45;17.53;;;9.07;;
20824;SDS011;10573;50.936;6.978;2024-01-16T04:16:11;16.15;;;8.95;;
20824;SDS011;10573;50.936;6.978;2024-01-16T04:18:38;17.55;;;9.07;;
20824;SDS011;10573;50.936;6.978;2024-01-16T04:21:05;20.05;;;9.48;;
20824;SDS011;10573;50.936;6.978;2024-01-16T04:23:31;18.17;;;9.13;;
20824;SDS011;10573;50.936;6.978;2024-01-16T04:25:57;16.17;;;9.98;;
20824;SDS011;10573;50.936;6.978;2024-01-16T04:28:22;18.07;;;11.17;;
20824;SDS011;10573;50.936;6.978;2024-01-16T04:30:48;17.50;;;9.50;;
20824;SDS011;10573;50.936;6.978;2024-01-16T04:33:14;19.33;;;9.60;;
20824;SDS011;10573;50.936;6.978;2024-01-16T04:35:39;18.10;;;9.53;;
20824;SDS011;10573;50.936;6.978;2024-01-16T04:38:04;20.98;;;9.32;;
20824;SDS011;10573;50.936;6.978;2024-01-16T04:40:30;15.37;;;9.33;;
20824;SDS011;10573;50.936;6.978;2024-01-16T04:42:55;18.33;;;9.00;;
20824;SDS011;10573;50.936;6.978;2024-01-16T04:45:20;17.75;;;8.45;;
20824;SDS011;10573;50.936;6.978;2024-01-16T04:47:46;14.07;;;8.23;;
20824;SDS011;10573;50.936;6.978;2024-01-16T04:50:11;19.80;;;8.70;;
20824;SDS011;10573;50.936;6.978;2024-01-16T04:52:36;15.23;;;7.80;;
20824;SDS011;10573;50.936;6.978;2024-01-16T04:55:02;12.93;;;7.03;;
20824;SDS011;10573;50.936;6.978;2024-01-16T04:57:28;18.33;;;7.07;;
20824;SDS011;10573;50.936;6.978;2024-01-16T04:59:53;16.77;;;7.25;;
20824;SDS011;10573;50.936;6.978;2024-01-16T05:02:18;14.83;;;6.60;;
20824;SDS011;10573;50.936;6.978;2024-01-16T05:04:44;13.77;;;6.50;;
20824;SDS011;10573;50.936;6.978;2024-01-16T05:07:10;19.27;;;7.10;;
20824;SDS011;10573;50.936;6.978;2024-01-16T05:09:35;18.55;;;6.55;;
20824;SDS011;10573;50.936;6.978;2024-01-16T05:12:01;15.23;;;6.27;;
20824;SDS011;10573;50.936;6.978;2024-01-16T05:14:26;11.77;;;6.20;;
20824;SDS011;10573;50.936;6.978;2024-01-16T05:16:52;19.53;;;6.37;;
20824;SDS011;10573;50.936;6.978;2024-01-16T05:19:17;16.52;;;6.70;;
20824;SDS011;10573;50.936;6.978;2024-01-16T05:21:43;14.15;;;6.22;;
20824;SDS011;10573;50.936;6.978;2024-01-16T05:24:09;21.50;;;6.80;;
20824;SDS011;10573;50.936;6.978;2024-01-16T05:26:34;20.52;;;7.20;;
20824;SDS011;10573;50.936;6.978;2024-01-16T05:29:00;19.95;;;7.75;;
20824;SDS011;10573;50.936;6.978;2024-01-16T05:31:25;23.35;;;7.43;;
20824;SDS011;10573;50.936;6.978;2024-01-16T05:33:51;18.03;;;7.03;;
20824;SDS011;10573;50.936;6.978;2024-01-16T05:36:16;15.77;;;7.37;;
20824;SDS011;10573;50.936;6.978;2024-01-16T05:38:41;18.63;;;7.43;;
20824;SDS011;10573;50.936;6.978;2024-01-16T05:41:07;16.13;;;7.35;;
20824;SDS011;10573;50.936;6.978;2024-01-16T05:43:32;18.83;;;7.17;;
20824;SDS011;10573;50.936;6.978;2024-01-16T05:45:58;17.77;;;7.47;;
20824;SDS011;10573;50.936;6.978;2024-01-16T05:48:23;14.33;;;7.43;;
20824;SDS011;10573;50.936;6.978;2024-01-16T05:50:48;18.13;;;8.00;;
20824;SDS011;10573;50.936;6.978;2024-01-16T05:53:14;17.00;;;7.10;;
20824;SDS011;10573;50.936;6.978;2024-01-16T05:55:39;16.63;;;7.83;;
20824;SDS011;10573;50.936;6.978;2024-01-16T05:58:05;19.35;;;7.38;;
20824;SDS011;10573;50.936;6.978;2024-01-16T06:00:30;15.02;;;7.22;;
20824;SDS011;10573;50.936;6.978;2024-01-16T06:02:56;18.27;;;7.50;;
20824;SDS011;10573;50.936;6.978;2024-01-16T06:05:21;20.33;;;7.80;;
20824;SDS011;10573;50.936;6.978;2024-01-16T06:07:46;21.77;;;7.43;;
20824;SDS011;10573;50.936;6.978;2024-01-16T06:10:12;15.83;;;6.87;;
20824;SDS011;10573;50.936;6.978;2024-01-16T06:12:38;15.88;;;7.32;;
20824;SDS011;10573;50.936;6.978;2024-01-16T06:15:04;16.25;;;6.63;;
20824;SDS011;10573;50.936;6.978;2024-01-16T06:17:30;15.93;;;6.53;;
20824;SDS011;10573;50.936;6.978;2024-01-16T06:19:55;18.33;;;7.23;;
20824;SDS011;10573;50.936;6.978;2024-01-16T06:22:20;19.57;;;6.83;;
20824;SDS011;10573;50.936;6.978;2024-01-16T06:24:46;15.23;;;6.33;;
20824;SDS011;10573;50.936;6.978;2024-01-16T06:27:11;13.32;;;6.28;;
20824;SDS011;10573;50.936;6.978;2024-01-16T06:29:44;16.75;;;6.38;;
20824;SDS011;10573;50.936;6.978;2024-01-16T06:32:09;14.40;;;6.00;;
20824;SDS011;10573;50.936;6.978;2024-01-16T06:34:35;13.57;;;6.07;;
20824;SDS011;10573;50.936;6.978;2024-01-16T06:37:00;13.67;;;5.90;;
20824;SDS011;10573;50.936;6.978;2024-01-16T06:39:26;16.27;;;6.10;;
20824;SDS011;10573;50.936;6.978;2024-01-16T06:41:51;21.67;;;6.47;;
20824;SDS011;10573;50.936;6.978;2024-01-16T06:44:18;17.90;;;6.33;;
20824;SDS011;10573;50.936;6.978;2024-01-16T06:46:44;20.42;;;5.78;;
20824;SDS011;10573;50.936;6.978;2024-01-16T06:49:10;17.05;;;6.55;;
20824;SDS011;10573;50.936;6.978;2024-01-16T06:51:36;16.70;;;6.15;;
20824;SDS011;10573;50.936;6.978;2024-01-16T06:54:01;14.38;;;5.53;;
20824;SDS011;10573;50.936;6.978;2024-01-16T06:56:26;15.33;;;5.83;;
20824;SDS011;10573;50.936;6.978;2024-01-16T06:58:52;13.30;;;5.80;;
20824;SDS011;10573;50.936;6.978;2024-01-16T07:01:18;15.88;;;5.45;;
20824;SDS011;10573;50.936;6.978;2024-01-16T07:03:44;14.63;;;5.53;;
20824;SDS011;10573;50.936;6.978;2024-01-16T07:06:09;15.27;;;5.70;;
20824;SDS011;10573;50.936;6.978;2024-01-16T07:08:35;15.50;;;5.93;;
20824;SDS011;10573;50.936;6.978;2024-01-16T07:11:01;15.20;;;5.60;;
20824;SDS011;10573;50.936;6.978;2024-01-16T07:13:26;15.07;;;4.83;;
20824;SDS011;10573;50.936;6.978;2024-01-16T07:15:51;12.90;;;5.03;;
20824;SDS011;10573;50.936;6.978;2024-01-16T07:18:17;12.23;;;4.80;;
20824;SDS011;10573;50.936;6.978;2024-01-16T07:20:43;12.68;;;4.97;;
20824;SDS011;10573;50.936;6.978;2024-01-16T07:23:10;9.95;;;4.60;;
20824;SDS011;10573;50.936;6.978;2024-01-16T07:25:36;12.90;;;4.30;;
20824;SDS011;10573;50.936;6.978;2024-01-16T07:28:01;16.57;;;4.67;;
20824;SDS011;10573;50.936;6.978;2024-01-16T07:30:27;13.18;;;4.70;;
20824;SDS011;10573;50.936;6.978;2024-01-16T07:32:52;9.50;;;4.10;;
20824;SDS011;10573;50.936;6.978;2024-01-16T07:35:19;14.23;;;4.65;;
20824;SDS011;10573;50.936;6.978;2024-01-16T07:37:44;12.50;;;4.40;;
20824;SDS011;10573;50.936;6.978;2024-01-16T07:40:10;15.25;;;4.63;;
20824;SDS011;10573;50.936;6.978;2024-01-16T07:42:37;11.33;;;4.70;;
20824;SDS011;10573;50.936;6.978;2024-01-16T07:45:03;14.77;;;5.40;;
20824;SDS011;10573;50.936;6.978;2024-01-16T07:47:32;13.57;;;4.88;;
20824;SDS011;10573;50.936;6.978;2024-01-16T07:49:58;14.13;;;4.43;;
20824;SDS011;10573;50.936;6.978;2024-01-16T07:52:24;13.07;;;4.70;;
20824;SDS011;10573;50.936;6.978;2024-01-16T07:54:50;12.17;;;4.27;;
20824;SDS011;10573;50.936;6.978;2024-01-16T07:57:16;11.80;;;4.03;;
20824;SDS011;10573;50.936;6.978;2024-01-16T07:59:41;16.90;;;4.60;;
20824;SDS011;10573;50.936;6.978;2024-01-16T08:02:06;11.40;;;3.83;;
20824;SDS011;10573;50.936;6.978;2024-01-16T08:04:32;13.33;;;3.80;;
20824;SDS011;10573;50.936;6.978;2024-01-16T08:06:57;12.37;;;4.00;;
20824;SDS011;10573;50.936;6.978;2024-01-16T08:09:23;15.93;;;3.93;;
20824;SDS011;10573;50.936;6.978;2024-01-16T08:11:48;10.37;;;3.23;;
20824;SDS011;10573;50.936;6.978;2024-01-16T08:14:14;12.93;;;3.60;;
20824;SDS011;10573;50.936;6.978;2024-01-16T08:16:39;10.83;;;3.23;;
20824;SDS011;10573;50.936;6.978;2024-01-16T08:19:05;12.37;;;3.43;;
20824;SDS011;10573;50.936;6.978;2024-01-16T08:21:30;9.63;;;3.45;;
20824;SDS011;10573;50.936;6.978;2024-01-16T08:23:56;13.23;;;3.17;;
20824;SDS011;10573;50.936;6.978;2024-01-16T08:26:21;11.07;;;3.50;;
20824;SDS011;10573;50.936;6.978;2024-01-16T08:28:46;9.52;;;3.50;;
20824;SDS011;10573;50.936;6.978;2024-01-16T08:31:12;11.73;;;4.00;;
20824;SDS011;10573;50.936;6.978;2024-01-16T08:33:37;9.80;;;3.43;;
20824;SDS011;10573;50.936;6.978;2024-01-16T08:36:03;11.70;;;3.03;;
20824;SDS011;10573;50.936;6.978;2024-01-16T08:38:29;11.85;;;3.55;;
20824;SDS011;10573;50.936;6.978;2024-01-16T08:40:54;11.45;;;3.42;;
20824;SDS011;10573;50.936;6.978;2024-01-16T08:43:20;12.00;;;3.97;;
20824;SDS011;10573;50.936;6.978;2024-01-16T08:45:45;11.17;;;3.87;;
20824;SDS011;10573;50.936;6.978;2024-01-16T08:48:12;9.15;;;3.33;;
20824;SDS011;10573;50.936;6.978;2024-01-16T08:50:40;11.35;;;3.40;;
20824;SDS011;10573;50.936;6.978;2024-01-16T08:53:06;8.98;;;3.90;;
20824;SDS011;10573;50.936;6.978;2024-01-16T08:55:31;10.73;;;3.63;;
20824;SDS011;10573;50.936;6.978;2024-01-16T08:57:57;8.65;;;3.70;;
20824;SDS011;10573;50.936;6.978;2024-01-16T09:00:22;8.57;;;3.60;;
20824;SDS011;10573;50.936;6.978;2024-01-16T09:02:48;11.17;;;3.60;;
20824;SDS011;10573;50.936;6.978;2024-01-16T09:05:13;14.33;;;3.80;;
20824;SDS011;10573;50.936;6.978;2024-01-16T09:07:40;9.27;;;3.28;;
20824;SDS011;10573;50.936;6.978;2024-01-16T09:10:06;8.93;;;3.50;;
20824;SDS011;10573;50.936;6.978;2024-01-16T09:12:32;8.37;;;3.37;;
20824;SDS011;10573;50.936;6.978;2024-01-16T09:14:58;11.50;;;3.55;;
20824;SDS011;10573;50.936;6.978;2024-01-16T09:17:23;15.40;;;3.83;;
20824;SDS011;10573;50.936;6.978;2024-01-16T09:19:51;10.52;;;3.83;;
20824;SDS011;10573;50.936;6.978;2024-01-16T09:22:17;16.92;;;3.67;;
20824;SDS011;10573;50.936;6.978;2024-01-16T09:24:43;9.82;;;3.42;;
20824;SDS011;10573;50.936;6.978;2024-01-16T09:27:08;12.13;;;3.70;;
20824;SDS011;10573;50.936;6.978;2024-01-16T09:29:35;12.18;;;3.35;;
20824;SDS011;10573;50.936;6.978;2024-01-16T09:32:02;12.95;;;3.20;;
20824;SDS011;10573;50.936;6.978;2024-01-16T09:34:27;11.57;;;3.70;;
20824;SDS011;10573;50.936;6.978;2024-01-16T09:36:53;6.97;;;2.83;;
20824;SDS011;10573;50.936;6.978;2024-01-16T09:39:19;9.20;;;3.07;;
20824;SDS011;10573;50.936;6.978;2024-01-16T09:41:44;12.03;;;3.50;;
20824;SDS011;10573;50.936;6.978;2024-01-16T09:44:10;14.30;;;3.50;;
20824;SDS011;10573;50.936;6.978;2024-01-16T09:46:37;8.80;;;3.10;;
20824;SDS011;10573;50.936;6.978;2024-01-16T09:49:03;12.67;;;3.50;;
20824;SDS011;10573;50.936;6.978;2024-01-16T09:51:29;11.32;;;3.40;;
20824;SDS011;10573;50.936;6.978;2024-01-16T09:53:55;9.70;;;3.78;;
20824;SDS011;10573;50.936;6.978;2024-01-16T09:56:22;15.40;;;3.58;;
20824;SDS011;10573;50.936;6.978;2024-01-16T09:58:50;11.88;;;3.53;;
20824;SDS011;10573;50.936;6.978;2024-01-16T10:01:22;14.30;;;3.70;;
20824;SDS011;10573;50.936;6.978;2024-01-16T10:03:48;9.57;;;3.25;;
20824;SDS011;10573;50.936;6.978;2024-01-16T10:06:14;10.32;;;3.42;;
20824;SDS011;10573;50.936;6.978;2024-01-16T10:08:41;12.90;;;3.88;;
20824;SDS011;10573;50.936;6.978;2024-01-16T10:11:07;11.57;;;3.87;;
20824;SDS011;10573;50.936;6.978;2024-01-16T10:13:33;12.20;;;4.10;;
20824;SDS011;10573;50.936;6.978;2024-01-16T10:15:59;11.67;;;3.50;;
20824;SDS011;10573;50.936;6.978;2024-01-16T10:18:25;14.30;;;4.63;;
20824;SDS011;10573;50.936;6.978;2024-01-16T10:20:51;16.00;;;3.60;;
20824;SDS011;10573;50.936;6.978;2024-01-16T10:23:24;11.18;;;3.35;;
20824;SDS011;10573;50.936;6.978;2024-01-16T10:28:31;12.23;;;3.63;;
20824;SDS011;10573;50.936;6.978;2024-01-16T10:31:02;14.90;;;3.70;;
20824;SDS011;10573;50.936;6.978;2024-01-16T10:33:29;12.70;;;2.80;;
20824;SDS011;10573;50.936;6.978;2024-01-16T10:39:02;6.83;;;2.70;;
20824;SDS011;10573;50.936;6.978;2024-01-16T10:41:28;12.18;;;3.03;;
20824;SDS011;10573;50.936;6.978;2024-01-16T10:44:03;8.37;;;3.33;;
20824;SDS011;10573;50.936;6.978;2024-01-16T10:46:30;9.35;;;2.95;;
20824;SDS011;10573;50.936;6.978;2024-01-16T10:49:01;11.70;;;3.60;;
20824;SDS011;10573;50.936;6.978;2024-01-16T10:51:27;15.90;;;3.40;;
20824;SDS011;10573;50.936;6.978;2024-01-16T10:53:58;12.15;;;3.70;;
20824;SDS011;10573;50.936;6.978;2024-01-16T10:56:28;15.48;;;3.90;;
20824;SDS011;10573;50.936;6.978;2024-01-16T10:59:01;13.70;;;3.72;;
20824;SDS011;10573;50.936;6.978;2024-01-16T11:01:40;14.88;;;3.97;;
20824;SDS011;10573;50.936;6.978;2024-01-16T11:04:10;15.48;;;3.78;;
20824;SDS011;10573;50.936;6.978;2024-01-16T11:06:37;10.82;;;2.97;;
20824;SDS011;10573;50.936;6.978;2024-01-16T11:09:05;10.57;;;3.25;;
20824;SDS011;10573;50.936;6.978;2024-01-16T11:11:32;14.23;;;3.45;;
20824;SDS011;10573;50.936;6.978;2024-01-16T11:13:59;13.00;;;3.30;;
20824;SDS011;10573;50.936;6.978;2024-01-16T11:16:27;12.77;;;3.60;;
20824;SDS011;10573;50.936;6.978;2024-01-16T11:18:53;11.73;;;3.28;;
20824;SDS011;10573;50.936;6.978;2024-01-16T11:21:19;11.63;;;3.00;;
20824;SDS011;10573;50.936;6.978;2024-01-16T11:23:45;13.73;;;3.63;;
20824;SDS011;10573;50.936;6.978;2024-01-16T11:26:28;11.30;;;3.13;;
20824;SDS011;10573;50.936;6.978;2024-01-16T11:28:57;11.10;;;3.20;;
20824;SDS011;10573;50.936;6.978;2024-01-16T11:33:52;8.43;;;3.43;;
20824;SDS011;10573;50.936;6.978;2024-01-16T11:39:09;9.55;;;3.20;;
20824;SDS011;10573;50.936;6.978;2024-01-16T11:41:51;6.97;;;2.80;;
20824;SDS011;10573;50.936;6.978;2024-01-16T11:47:21;8.73;;;2.90;;
20824;SDS011;10573;50.936;6.978;2024-01-16T11:49:50;10.77;;;3.50;;
20824;SDS011;10573;50.936;6.978;2024-01-16T11:52:39;10.90;;;3.38;;
20824;SDS011;10573;50.936;6.978;2024-01-16T11:55:27;9.70;;;3.47;;
20824;SDS011;10573;50.936;6.978;2024-01-16T12:00:59;9.73;;;3.20;;
20824;SDS011;10573;50.936;6.978;2024-01-16T12:03:24;7.67;;;3.10;;
20824;SDS011;10573;50.936;6.978;2024-01-16T12:05:56;11.03;;;3.50;;
20824;SDS011;10573;50.936;6.978;2024-01-16T12:08:22;12.43;;;3.10;;
20824;SDS011;10573;50.936;6.978;2024-01-16T12:10:48;10.85;;;4.00;;
20824;SDS011;10573;50.936;6.978;2024-01-16T12:13:13;8.20;;;3.40;;
20824;SDS011;10573;50.936;6.978;2024-01-16T12:15:39;10.18;;;3.60;;
20824;SDS011;10573;50.936;6.978;2024-01-16T12:18:06;9.23;;;3.05;;
20824;SDS011;10573;50.936;6.978;2024-01-16T12:20:32;11.77;;;3.13;;
20824;SDS011;10573;50.936;6.978;2024-01-16T12:22:59;16.95;;;7.30;;
20824;SDS011;10573;50.936;6.978;2024-01-16T12:25:29;11.75;;;3.10;;
20824;SDS011;10573;50.936;6.978;2024-01-16T12:27:57;9.27;;;3.13;;
20824;SDS011;10573;50.936;6.978;2024-01-16T12:30:35;10.77;;;3.25;;
20824;SDS011;10573;50.936;6.978;2024-01-16T12:33:11;7.03;;;2.90;;
20824;SDS011;10573;50.936;6.978;2024-01-16T12:35:38;13.45;;;3.60;;
20824;SDS011;10573;50.936;6.978;2024-01-16T12:38:06;12.07;;;3.50;;
20824;SDS011;10573;50.936;6.978;2024-01-16T12:40:36;8.97;;;2.93;;
20824;SDS011;10573;50.936;6.978;2024-01-16T12:43:02;10.00;;;3.30;;
20824;SDS011;10573;50.936;6.978;2024-01-16T12:45:30;13.73;;;3.40;;
20824;SDS011;10573;50.936;6.978;2024-01-16T12:47:57;11.97;;;3.60;;
20824;SDS011;10573;50.936;6.978;2024-01-16T12:50:24;7.80;;;3.03;;
20824;SDS011;10573;50.936;6.978;2024-01-16T12:53:01;8.90;;;2.95;;
20824;SDS011;10573;50.936;6.978;2024-01-16T12:55:28;8.50;;;3.15;;
20824;SDS011;10573;50.936;6.978;2024-01-16T13:00:48;7.47;;;3.28;;
20824;SDS011;10573;50.936;6.978;2024-01-16T13:03:15;10.10;;;3.20;;
20824;SDS011;10573;50.936;6.978;2024-01-16T13:05:42;9.23;;;3.17;;
20824;SDS011;10573;50.936;6.978;2024-01-16T13:08:08;12.15;;;3.15;;
20824;SDS011;10573;50.936;6.978;2024-01-16T13:10:34;9.70;;;3.50;;
20824;SDS011;10573;50.936;6.978;2024-01-16T13:15:38;10.18;;;3.47;;
20824;SDS011;10573;50.936;6.978;2024-01-16T13:18:05;8.47;;;3.47;;
20824;SDS011;10573;50.936;6.978;2024-01-16T13:20:30;11.53;;;3.73;;
20824;SDS011;10573;50.936;6.978;2024-01-16T13:22:57;9.40;;;3.35;;
20824;SDS011;10573;50.936;6.978;2024-01-16T13:25:22;8.38;;;3.33;;
20824;SDS011;10573;50.936;6.978;2024-01-16T13:27:47;9.20;;;3.40;;
20824;SDS011;10573;50.936;6.978;2024-01-16T13:30:13;9.43;;;3.67;;
20824;SDS011;10573;50.936;6.978;2024-01-16T13:32:39;8.52;;;3.47;;
20824;SDS011;10573;50.936;6.978;2024-01-16T13:35:05;7.53;;;3.30;;
20824;SDS011;10573;50.936;6.978;2024-01-16T13:37:33;13.33;;;4.40;;
20824;SDS011;10573;50.936;6.978;2024-01-16T13:40:02;11.15;;;4.22;;
20824;SDS011;10573;50.936;6.978;2024-01-16T13:42:28;10.50;;;3.63;;
20824;SDS011;10573;50.936;6.978;2024-01-16T13:44:54;11.67;;;4.20;;
20824;SDS011;10573;50.936;6.978;2024-01-16T13:47:19;9.03;;;4.13;;
20824;SDS011;10573;50.936;6.978;2024-01-16T13:49:44;11.60;;;4.33;;
20824;SDS011;10573;50.936;6.978;2024-01-16T13:52:10;9.63;;;4.27;;
20824;SDS011;10573;50.936;6.978;2024-01-16T13:54:36;18.37;;;4.30;;
20824;SDS011;10573;50.936;6.978;2024-01-16T13:57:03;8.85;;;3.90;;
20824;SDS011;10573;50.936;6.978;2024-01-16T13:59:29;14.70;;;4.32;;
20824;SDS011;10573;50.936;6.978;2024-01-16T14:01:54;12.68;;;4.05;;
20824;SDS011;10573;50.936;6.978;2024-01-16T14:04:20;11.17;;;4.27;;
20824;SDS011;10573;50.936;6.978;2024-01-16T14:06:45;17.33;;;4.40;;
20824;SDS011;10573;50.936;6.978;2024-01-16T14:09:11;11.85;;;4.18;;
20824;SDS011;10573;50.936;6.978;2024-01-16T14:11:38;12.60;;;4.40;;
20824;SDS011;10573;50.936;6.978;2024-01-16T14:14:03;8.33;;;3.87;;
20824;SDS011;10573;50.936;6.978;2024-01-16T14:16:30;9.57;;;4.20;;
20824;SDS011;10573;50.936;6.978;2024-01-16T14:18:55;11.13;;;4.47;;
20824;SDS011;10573;50.936;6.978;2024-01-16T14:21:21;11.60;;;4.07;;
20824;SDS011;10573;50.936;6.978;2024-01-16T14:23:47;11.80;;;3.85;;
20824;SDS011;10573;50.936;6.978;2024-01-16T14:26:13;10.07;;;3.90;;
20824;SDS011;10573;50.936;6.978;2024-01-16T14:28:38;11.53;;;4.00;;
20824;SDS011;10573;50.936;6.978;2024-01-16T14:31:03;9.33;;;3.80;;
20824;SDS011;10573;50.936;6.978;2024-01-16T14:33:29;9.27;;;3.93;;
20824;SDS011;10573;50.936;6.978;2024-01-16T14:35:54;8.73;;;3.37;;
20824;SDS011;10573;50.936;6.978;2024-01-16T14:38:20;8.35;;;3.65;;
20824;SDS011;10573;50.936;6.978;2024-01-16T14:40:46;10.23;;;3.77;;
20824;SDS011;10573;50.936;6.978;2024-01-16T14:43:11;10.03;;;3.90;;
20824;SDS011;10573;50.936;6.978;2024-01-16T14:45:37;9.90;;;3.47;;
20824;SDS011;10573;50.936;6.978;2024-01-16T14:48:02;9.77;;;3.83;;
20824;SDS011;10573;50.936;6.978;2024-01-16T14:50:29;6.78;;;3.60;;
20824;SDS011;10573;50.936;6.978;2024-01-16T14:52:55;10.48;;;3.72;;